KIBM

Details ICAO KIBM
Name KIMBALL MUNI ROBERT E ARRAJ FLD
Region United States
Timezone America/Denver (UTC-7.0)
Plans Departing 3
Arriving 0
Stats Elevation 4,926 ft / 1,501 m (AMSL)
Location 41.188059° -103.677311°
Runways 1
Magnetic Variation 7.616° E
Sunrise 2017-12-15 14:14:43 UTC / 2017-12-15 07:14:43 Local
Sunset 2017-12-15 23:28:04 UTC / 2017-12-15 16:28:04 Local
Advertisement - Login to hide

Runways

ID Width Length Bearing (true) Bearing (mag) Surface Threshold Offset Overrun Length
10 75 ft / 23 m 6,194 ft / 1,888 m 104.79° 97.17° Concrete 0 ft / 0 m 0 ft / 0 m
28 75 ft / 23 m 6,194 ft / 1,888 m 284.81° 277.19° Concrete 0 ft / 0 m 0 ft / 0 m

Map

Weather


0- 5 10 15 20 25 30 35+ Temperature / ° C

Clouds and Precipitation
Forecast for 2017-12-15 18:00 UTC. Updated 32 minutes ago

Ground ~20,000 ft ~40,000 ft Winds

METAR

KIBM 151735Z AUTO 29017G26KT 10SM CLR 10/M11 A2999 RMK AO2 T00991107

TAF

Not found

Frequencies

Recorded 118.07 MHz AWOS 3
Unicom 122.80 MHz CTAF/UNICOM
Warning: Do not use this data for real-world aviation or navigation. No guarantee of current accuracy is given.